sensor_id;sensor_type;location;lat;lon;timestamp;P1;durP1;ratioP1;P2;durP2;ratioP2
42006;SDS011;27696;42.704;23.304;2023-03-11T00:02:15;8.25;;;6.47;;
42006;SDS011;27696;42.704;23.304;2023-03-11T00:04:40;4.15;;;3.30;;
42006;SDS011;27696;42.704;23.304;2023-03-11T00:07:06;6.50;;;2.40;;
42006;SDS011;27696;42.704;23.304;2023-03-11T00:09:33;5.53;;;1.50;;
42006;SDS011;27696;42.704;23.304;2023-03-11T00:11:59;2.55;;;1.40;;
42006;SDS011;27696;42.704;23.304;2023-03-11T00:14:24;3.50;;;1.20;;
42006;SDS011;27696;42.704;23.304;2023-03-11T00:16:50;4.43;;;1.20;;
42006;SDS011;27696;42.704;23.304;2023-03-11T00:19:15;2.47;;;1.20;;
42006;SDS011;27696;42.704;23.304;2023-03-11T00:21:40;2.70;;;0.80;;
42006;SDS011;27696;42.704;23.304;2023-03-11T00:24:06;0.55;;;0.40;;
42006;SDS011;27696;42.704;23.304;2023-03-11T00:26:31;1.48;;;0.70;;
42006;SDS011;27696;42.704;23.304;2023-03-11T00:28:57;1.90;;;0.82;;
42006;SDS011;27696;42.704;23.304;2023-03-11T00:31:22;3.22;;;0.80;;
42006;SDS011;27696;42.704;23.304;2023-03-11T00:33:50;1.67;;;0.70;;
42006;SDS011;27696;42.704;23.304;2023-03-11T00:36:23;1.13;;;0.52;;
42006;SDS011;27696;42.704;23.304;2023-03-11T00:38:52;2.58;;;0.68;;
42006;SDS011;27696;42.704;23.304;2023-03-11T00:41:18;1.17;;;0.50;;
42006;SDS011;27696;42.704;23.304;2023-03-11T00:43:44;1.02;;;0.50;;
42006;SDS011;27696;42.704;23.304;2023-03-11T00:46:09;3.10;;;0.75;;
42006;SDS011;27696;42.704;23.304;2023-03-11T00:48:34;0.90;;;0.68;;
42006;SDS011;27696;42.704;23.304;2023-03-11T00:51:00;0.95;;;0.52;;
42006;SDS011;27696;42.704;23.304;2023-03-11T00:53:25;2.33;;;0.93;;
42006;SDS011;27696;42.704;23.304;2023-03-11T00:55:51;2.28;;;0.80;;
42006;SDS011;27696;42.704;23.304;2023-03-11T00:58:16;1.80;;;1.38;;
42006;SDS011;27696;42.704;23.304;2023-03-11T01:00:42;1.42;;;0.60;;
42006;SDS011;27696;42.704;23.304;2023-03-11T01:03:07;2.53;;;0.60;;
42006;SDS011;27696;42.704;23.304;2023-03-11T01:05:33;3.22;;;1.30;;
42006;SDS011;27696;42.704;23.304;2023-03-11T01:07:59;4.47;;;2.47;;
42006;SDS011;27696;42.704;23.304;2023-03-11T01:10:25;1.58;;;0.90;;
42006;SDS011;27696;42.704;23.304;2023-03-11T01:12:51;3.17;;;1.73;;
42006;SDS011;27696;42.704;23.304;2023-03-11T01:15:20;6.80;;;2.22;;
42006;SDS011;27696;42.704;23.304;2023-03-11T01:17:48;3.08;;;2.20;;
42006;SDS011;27696;42.704;23.304;2023-03-11T01:20:15;2.28;;;1.80;;
42006;SDS011;27696;42.704;23.304;2023-03-11T01:22:41;3.08;;;1.75;;
42006;SDS011;27696;42.704;23.304;2023-03-11T01:25:07;2.20;;;1.60;;
42006;SDS011;27696;42.704;23.304;2023-03-11T01:27:34;2.25;;;1.10;;
42006;SDS011;27696;42.704;23.304;2023-03-11T01:30:00;3.05;;;2.53;;
42006;SDS011;27696;42.704;23.304;2023-03-11T01:32:25;2.20;;;1.10;;
42006;SDS011;27696;42.704;23.304;2023-03-11T01:34:50;4.18;;;1.85;;
42006;SDS011;27696;42.704;23.304;2023-03-11T01:37:16;4.07;;;2.00;;
42006;SDS011;27696;42.704;23.304;2023-03-11T01:39:41;2.90;;;2.30;;
42006;SDS011;27696;42.704;23.304;2023-03-11T01:42:07;2.92;;;2.45;;
42006;SDS011;27696;42.704;23.304;2023-03-11T01:44:32;3.33;;;1.90;;
42006;SDS011;27696;42.704;23.304;2023-03-11T01:49:26;7.15;;;3.17;;
42006;SDS011;27696;42.704;23.304;2023-03-11T01:51:56;1.45;;;1.20;;
42006;SDS011;27696;42.704;23.304;2023-03-11T01:54:29;2.00;;;1.70;;
42006;SDS011;27696;42.704;23.304;2023-03-11T01:56:56;2.78;;;1.30;;
42006;SDS011;27696;42.704;23.304;2023-03-11T01:59:26;2.15;;;1.17;;
42006;SDS011;27696;42.704;23.304;2023-03-11T02:04:23;2.08;;;1.63;;
42006;SDS011;27696;42.704;23.304;2023-03-11T02:06:49;3.90;;;2.30;;
42006;SDS011;27696;42.704;23.304;2023-03-11T02:09:14;2.40;;;1.05;;
42006;SDS011;27696;42.704;23.304;2023-03-11T02:11:39;2.20;;;1.50;;
42006;SDS011;27696;42.704;23.304;2023-03-11T02:14:05;2.45;;;1.30;;
42006;SDS011;27696;42.704;23.304;2023-03-11T02:16:32;2.75;;;1.67;;
42006;SDS011;27696;42.704;23.304;2023-03-11T02:18:59;3.08;;;1.35;;
42006;SDS011;27696;42.704;23.304;2023-03-11T02:21:29;1.77;;;1.55;;
42006;SDS011;27696;42.704;23.304;2023-03-11T02:29:26;2.00;;;1.30;;
42006;SDS011;27696;42.704;23.304;2023-03-11T02:31:52;1.58;;;1.23;;
42006;SDS011;27696;42.704;23.304;2023-03-11T02:34:24;2.10;;;1.10;;
42006;SDS011;27696;42.704;23.304;2023-03-11T02:36:52;3.35;;;1.30;;
42006;SDS011;27696;42.704;23.304;2023-03-11T02:41:58;4.05;;;0.98;;
42006;SDS011;27696;42.704;23.304;2023-03-11T02:44:25;2.33;;;1.20;;
42006;SDS011;27696;42.704;23.304;2023-03-11T02:46:51;2.40;;;1.10;;
42006;SDS011;27696;42.704;23.304;2023-03-11T02:49:17;4.90;;;1.25;;
42006;SDS011;27696;42.704;23.304;2023-03-11T02:51:42;5.22;;;1.42;;
42006;SDS011;27696;42.704;23.304;2023-03-11T02:54:08;2.22;;;1.13;;
42006;SDS011;27696;42.704;23.304;2023-03-11T02:56:33;2.33;;;1.10;;
42006;SDS011;27696;42.704;23.304;2023-03-11T02:58:58;2.50;;;0.90;;
42006;SDS011;27696;42.704;23.304;2023-03-11T03:01:24;1.40;;;0.70;;
42006;SDS011;27696;42.704;23.304;2023-03-11T03:03:49;0.98;;;0.50;;
42006;SDS011;27696;42.704;23.304;2023-03-11T03:06:15;3.70;;;0.70;;
42006;SDS011;27696;42.704;23.304;2023-03-11T03:08:40;3.40;;;0.73;;
42006;SDS011;27696;42.704;23.304;2023-03-11T03:11:06;1.17;;;0.60;;
42006;SDS011;27696;42.704;23.304;2023-03-11T03:13:31;1.08;;;0.63;;
42006;SDS011;27696;42.704;23.304;2023-03-11T03:15:57;1.13;;;0.90;;
42006;SDS011;27696;42.704;23.304;2023-03-11T03:18:23;2.38;;;1.10;;
42006;SDS011;27696;42.704;23.304;2023-03-11T03:20:49;1.63;;;1.08;;
42006;SDS011;27696;42.704;23.304;2023-03-11T03:23:15;1.35;;;0.90;;
42006;SDS011;27696;42.704;23.304;2023-03-11T03:25:41;2.55;;;1.20;;
42006;SDS011;27696;42.704;23.304;2023-03-11T03:28:08;1.50;;;0.80;;
42006;SDS011;27696;42.704;23.304;2023-03-11T03:30:33;1.00;;;0.70;;
42006;SDS011;27696;42.704;23.304;2023-03-11T03:32:59;1.45;;;0.80;;
42006;SDS011;27696;42.704;23.304;2023-03-11T03:35:25;0.85;;;0.50;;
42006;SDS011;27696;42.704;23.304;2023-03-11T03:37:50;0.85;;;0.70;;
42006;SDS011;27696;42.704;23.304;2023-03-11T03:40:16;0.95;;;0.60;;
42006;SDS011;27696;42.704;23.304;2023-03-11T03:42:42;1.52;;;1.00;;
42006;SDS011;27696;42.704;23.304;2023-03-11T03:45:07;2.50;;;0.85;;
42006;SDS011;27696;42.704;23.304;2023-03-11T03:47:33;1.20;;;0.50;;
42006;SDS011;27696;42.704;23.304;2023-03-11T03:49:59;0.50;;;0.50;;
42006;SDS011;27696;42.704;23.304;2023-03-11T03:52:25;1.63;;;1.17;;
42006;SDS011;27696;42.704;23.304;2023-03-11T03:54:50;1.30;;;0.55;;
42006;SDS011;27696;42.704;23.304;2023-03-11T03:57:15;1.88;;;0.60;;
42006;SDS011;27696;42.704;23.304;2023-03-11T03:59:41;0.85;;;0.70;;
42006;SDS011;27696;42.704;23.304;2023-03-11T04:02:06;1.27;;;0.70;;
42006;SDS011;27696;42.704;23.304;2023-03-11T04:04:32;0.45;;;0.45;;
42006;SDS011;27696;42.704;23.304;2023-03-11T04:06:57;0.60;;;0.55;;
42006;SDS011;27696;42.704;23.304;2023-03-11T04:09:23;1.88;;;0.70;;
42006;SDS011;27696;42.704;23.304;2023-03-11T04:11:48;0.80;;;0.55;;
42006;SDS011;27696;42.704;23.304;2023-03-11T04:14:14;0.70;;;0.50;;
42006;SDS011;27696;42.704;23.304;2023-03-11T04:16:39;1.00;;;0.50;;
42006;SDS011;27696;42.704;23.304;2023-03-11T04:19:05;2.65;;;0.80;;
42006;SDS011;27696;42.704;23.304;2023-03-11T04:21:31;0.88;;;0.75;;
42006;SDS011;27696;42.704;23.304;2023-03-11T04:23:57;1.88;;;0.80;;
42006;SDS011;27696;42.704;23.304;2023-03-11T04:26:23;1.00;;;0.65;;
42006;SDS011;27696;42.704;23.304;2023-03-11T04:28:48;3.25;;;0.73;;
42006;SDS011;27696;42.704;23.304;2023-03-11T04:31:14;0.88;;;0.70;;
42006;SDS011;27696;42.704;23.304;2023-03-11T04:33:39;1.30;;;0.65;;
42006;SDS011;27696;42.704;23.304;2023-03-11T04:36:05;1.33;;;0.80;;
42006;SDS011;27696;42.704;23.304;2023-03-11T04:38:31;1.38;;;0.90;;
42006;SDS011;27696;42.704;23.304;2023-03-11T04:41:00;1.13;;;0.70;;
42006;SDS011;27696;42.704;23.304;2023-03-11T04:43:27;0.80;;;0.70;;
42006;SDS011;27696;42.704;23.304;2023-03-11T04:45:53;2.15;;;0.80;;
42006;SDS011;27696;42.704;23.304;2023-03-11T04:48:18;1.20;;;0.70;;
42006;SDS011;27696;42.704;23.304;2023-03-11T04:50:43;0.80;;;0.77;;
42006;SDS011;27696;42.704;23.304;2023-03-11T04:53:09;0.77;;;0.60;;
42006;SDS011;27696;42.704;23.304;2023-03-11T04:55:35;0.90;;;0.70;;
42006;SDS011;27696;42.704;23.304;2023-03-11T04:58:00;0.68;;;0.50;;
42006;SDS011;27696;42.704;23.304;2023-03-11T05:00:26;0.40;;;0.40;;
42006;SDS011;27696;42.704;23.304;2023-03-11T05:02:51;0.95;;;0.65;;
42006;SDS011;27696;42.704;23.304;2023-03-11T05:05:16;0.80;;;0.70;;
42006;SDS011;27696;42.704;23.304;2023-03-11T05:07:45;1.40;;;0.47;;
42006;SDS011;27696;42.704;23.304;2023-03-11T05:10:11;2.08;;;0.52;;
42006;SDS011;27696;42.704;23.304;2023-03-11T05:12:37;0.93;;;0.73;;
42006;SDS011;27696;42.704;23.304;2023-03-11T05:15:02;1.25;;;0.90;;
42006;SDS011;27696;42.704;23.304;2023-03-11T05:17:28;1.52;;;0.93;;
42006;SDS011;27696;42.704;23.304;2023-03-11T05:19:53;2.67;;;1.00;;
42006;SDS011;27696;42.704;23.304;2023-03-11T05:22:19;1.55;;;0.90;;
42006;SDS011;27696;42.704;23.304;2023-03-11T05:24:45;1.90;;;0.75;;
42006;SDS011;27696;42.704;23.304;2023-03-11T05:27:11;2.80;;;1.00;;
42006;SDS011;27696;42.704;23.304;2023-03-11T05:29:36;1.17;;;1.00;;
42006;SDS011;27696;42.704;23.304;2023-03-11T05:32:02;4.55;;;1.20;;
42006;SDS011;27696;42.704;23.304;2023-03-11T05:34:28;1.00;;;0.90;;
42006;SDS011;27696;42.704;23.304;2023-03-11T05:36:53;3.42;;;1.17;;
42006;SDS011;27696;42.704;23.304;2023-03-11T05:39:18;2.00;;;1.05;;
42006;SDS011;27696;42.704;23.304;2023-03-11T05:41:44;1.42;;;1.20;;
42006;SDS011;27696;42.704;23.304;2023-03-11T05:44:09;2.08;;;1.17;;
42006;SDS011;27696;42.704;23.304;2023-03-11T05:46:35;2.55;;;1.35;;
42006;SDS011;27696;42.704;23.304;2023-03-11T05:49:00;1.65;;;1.08;;
42006;SDS011;27696;42.704;23.304;2023-03-11T05:51:26;2.90;;;1.30;;
42006;SDS011;27696;42.704;23.304;2023-03-11T05:53:51;2.90;;;1.48;;
42006;SDS011;27696;42.704;23.304;2023-03-11T05:56:17;2.72;;;1.38;;
42006;SDS011;27696;42.704;23.304;2023-03-11T05:58:44;2.22;;;1.40;;
42006;SDS011;27696;42.704;23.304;2023-03-11T06:01:10;2.17;;;1.30;;
42006;SDS011;27696;42.704;23.304;2023-03-11T06:03:37;2.80;;;1.63;;
42006;SDS011;27696;42.704;23.304;2023-03-11T06:06:04;1.52;;;1.42;;
42006;SDS011;27696;42.704;23.304;2023-03-11T06:08:30;2.28;;;1.30;;
42006;SDS011;27696;42.704;23.304;2023-03-11T06:11:05;2.00;;;1.50;;
42006;SDS011;27696;42.704;23.304;2023-03-11T06:13:32;1.88;;;1.40;;
42006;SDS011;27696;42.704;23.304;2023-03-11T06:15:58;2.25;;;1.52;;
42006;SDS011;27696;42.704;23.304;2023-03-11T06:18:23;2.17;;;1.75;;
42006;SDS011;27696;42.704;23.304;2023-03-11T06:20:50;1.42;;;1.10;;
42006;SDS011;27696;42.704;23.304;2023-03-11T06:23:16;3.30;;;1.60;;
42006;SDS011;27696;42.704;23.304;2023-03-11T06:25:42;2.75;;;1.92;;
42006;SDS011;27696;42.704;23.304;2023-03-11T06:28:07;1.70;;;1.30;;
42006;SDS011;27696;42.704;23.304;2023-03-11T06:30:33;1.50;;;0.95;;
42006;SDS011;27696;42.704;23.304;2023-03-11T06:32:58;3.00;;;1.15;;
42006;SDS011;27696;42.704;23.304;2023-03-11T06:35:23;2.33;;;1.27;;
42006;SDS011;27696;42.704;23.304;2023-03-11T06:37:49;2.92;;;1.52;;
42006;SDS011;27696;42.704;23.304;2023-03-11T06:40:15;2.90;;;1.33;;
42006;SDS011;27696;42.704;23.304;2023-03-11T06:42:40;4.55;;;1.60;;
42006;SDS011;27696;42.704;23.304;2023-03-11T06:45:06;3.78;;;1.38;;
42006;SDS011;27696;42.704;23.304;2023-03-11T06:47:32;3.72;;;1.63;;
42006;SDS011;27696;42.704;23.304;2023-03-11T06:49:57;7.68;;;1.60;;
42006;SDS011;27696;42.704;23.304;2023-03-11T06:52:23;2.65;;;1.60;;
42006;SDS011;27696;42.704;23.304;2023-03-11T06:54:48;4.82;;;1.25;;
42006;SDS011;27696;42.704;23.304;2023-03-11T06:57:14;5.60;;;1.83;;
42006;SDS011;27696;42.704;23.304;2023-03-11T06:59:40;2.60;;;1.67;;
42006;SDS011;27696;42.704;23.304;2023-03-11T07:02:06;4.15;;;2.20;;
42006;SDS011;27696;42.704;23.304;2023-03-11T07:04:32;5.93;;;4.32;;
42006;SDS011;27696;42.704;23.304;2023-03-11T07:06:57;6.45;;;2.80;;
42006;SDS011;27696;42.704;23.304;2023-03-11T07:09:23;5.72;;;3.47;;
42006;SDS011;27696;42.704;23.304;2023-03-11T07:11:50;9.27;;;5.38;;
42006;SDS011;27696;42.704;23.304;2023-03-11T07:14:16;9.15;;;6.07;;
42006;SDS011;27696;42.704;23.304;2023-03-11T07:16:42;4.72;;;2.30;;
42006;SDS011;27696;42.704;23.304;2023-03-11T07:19:08;8.40;;;2.53;;
42006;SDS011;27696;42.704;23.304;2023-03-11T07:21:33;3.97;;;2.55;;
42006;SDS011;27696;42.704;23.304;2023-03-11T07:24:00;9.63;;;3.92;;
42006;SDS011;27696;42.704;23.304;2023-03-11T07:26:27;7.63;;;4.85;;
42006;SDS011;27696;42.704;23.304;2023-03-11T07:28:53;5.10;;;2.10;;
42006;SDS011;27696;42.704;23.304;2023-03-11T07:31:22;4.63;;;2.13;;
42006;SDS011;27696;42.704;23.304;2023-03-11T07:33:49;5.03;;;1.98;;
42006;SDS011;27696;42.704;23.304;2023-03-11T07:36:16;10.65;;;5.28;;
42006;SDS011;27696;42.704;23.304;2023-03-11T07:38:42;5.07;;;2.60;;
42006;SDS011;27696;42.704;23.304;2023-03-11T07:41:08;5.25;;;1.80;;
42006;SDS011;27696;42.704;23.304;2023-03-11T07:43:35;2.63;;;1.35;;
42006;SDS011;27696;42.704;23.304;2023-03-11T07:46:11;2.25;;;1.60;;
42006;SDS011;27696;42.704;23.304;2023-03-11T07:48:38;3.25;;;1.27;;
42006;SDS011;27696;42.704;23.304;2023-03-11T07:51:05;2.40;;;1.30;;
42006;SDS011;27696;42.704;23.304;2023-03-11T07:53:32;2.45;;;1.45;;
42006;SDS011;27696;42.704;23.304;2023-03-11T07:55:58;1.85;;;0.80;;
42006;SDS011;27696;42.704;23.304;2023-03-11T07:58:24;1.83;;;1.00;;
42006;SDS011;27696;42.704;23.304;2023-03-11T08:00:50;2.95;;;1.17;;
42006;SDS011;27696;42.704;23.304;2023-03-11T08:03:16;0.98;;;0.80;;
42006;SDS011;27696;42.704;23.304;2023-03-11T08:05:42;2.60;;;1.50;;
42006;SDS011;27696;42.704;23.304;2023-03-11T08:08:08;2.05;;;1.08;;
42006;SDS011;27696;42.704;23.304;2023-03-11T08:10:35;2.63;;;1.27;;
42006;SDS011;27696;42.704;23.304;2023-03-11T08:13:01;2.40;;;1.25;;
42006;SDS011;27696;42.704;23.304;2023-03-11T08:15:26;1.83;;;1.08;;
42006;SDS011;27696;42.704;23.304;2023-03-11T08:17:52;4.07;;;1.10;;
42006;SDS011;27696;42.704;23.304;2023-03-11T08:20:18;2.05;;;0.95;;
42006;SDS011;27696;42.704;23.304;2023-03-11T08:22:43;1.42;;;1.00;;
42006;SDS011;27696;42.704;23.304;2023-03-11T08:25:09;3.42;;;0.95;;
42006;SDS011;27696;42.704;23.304;2023-03-11T08:27:35;5.57;;;1.23;;
42006;SDS011;27696;42.704;23.304;2023-03-11T08:30:00;3.13;;;0.80;;
42006;SDS011;27696;42.704;23.304;2023-03-11T08:32:27;3.38;;;1.25;;
42006;SDS011;27696;42.704;23.304;2023-03-11T08:34:55;2.53;;;1.40;;
42006;SDS011;27696;42.704;23.304;2023-03-11T08:37:21;1.77;;;1.20;;
42006;SDS011;27696;42.704;23.304;2023-03-11T08:39:47;4.10;;;1.25;;
42006;SDS011;27696;42.704;23.304;2023-03-11T08:42:12;3.33;;;2.15;;
42006;SDS011;27696;42.704;23.304;2023-03-11T08:44:38;2.28;;;1.42;;
42006;SDS011;27696;42.704;23.304;2023-03-11T08:47:03;4.38;;;1.80;;
42006;SDS011;27696;42.704;23.304;2023-03-11T08:49:29;2.72;;;1.20;;
42006;SDS011;27696;42.704;23.304;2023-03-11T08:51:55;4.35;;;0.90;;
42006;SDS011;27696;42.704;23.304;2023-03-11T08:54:20;3.58;;;1.10;;
42006;SDS011;27696;42.704;23.304;2023-03-11T08:56:46;1.80;;;0.82;;
42006;SDS011;27696;42.704;23.304;2023-03-11T08:59:12;2.60;;;1.27;;
42006;SDS011;27696;42.704;23.304;2023-03-11T09:01:38;2.53;;;1.00;;
42006;SDS011;27696;42.704;23.304;2023-03-11T09:04:03;1.75;;;1.10;;
42006;SDS011;27696;42.704;23.304;2023-03-11T09:06:29;2.30;;;1.00;;
42006;SDS011;27696;42.704;23.304;2023-03-11T09:08:54;1.35;;;0.90;;
42006;SDS011;27696;42.704;23.304;2023-03-11T09:11:22;1.48;;;1.00;;
42006;SDS011;27696;42.704;23.304;2023-03-11T09:13:48;2.08;;;1.13;;
42006;SDS011;27696;42.704;23.304;2023-03-11T09:16:14;1.42;;;0.73;;
42006;SDS011;27696;42.704;23.304;2023-03-11T09:18:41;2.53;;;1.08;;
42006;SDS011;27696;42.704;23.304;2023-03-11T09:21:07;1.60;;;0.90;;
42006;SDS011;27696;42.704;23.304;2023-03-11T09:23:33;2.15;;;1.02;;
42006;SDS011;27696;42.704;23.304;2023-03-11T09:25:58;2.45;;;1.00;;
42006;SDS011;27696;42.704;23.304;2023-03-11T09:28:24;3.75;;;1.40;;
42006;SDS011;27696;42.704;23.304;2023-03-11T09:30:49;7.88;;;1.65;;
42006;SDS011;27696;42.704;23.304;2023-03-11T09:33:15;3.45;;;0.90;;
42006;SDS011;27696;42.704;23.304;2023-03-11T09:35:40;4.85;;;1.08;;
42006;SDS011;27696;42.704;23.304;2023-03-11T09:38:06;2.70;;;1.20;;
42006;SDS011;27696;42.704;23.304;2023-03-11T09:43:50;4.07;;;1.92;;
42006;SDS011;27696;42.704;23.304;2023-03-11T09:52:08;1.23;;;0.68;;
42006;SDS011;27696;42.704;23.304;2023-03-11T09:54:43;1.98;;;0.80;;
42006;SDS011;27696;42.704;23.304;2023-03-11T09:57:15;1.42;;;0.80;;
42006;SDS011;27696;42.704;23.304;2023-03-11T09:59:43;4.15;;;1.13;;
42006;SDS011;27696;42.704;23.304;2023-03-11T10:02:20;1.25;;;0.93;;
42006;SDS011;27696;42.704;23.304;2023-03-11T10:07:38;2.13;;;0.90;;
42006;SDS011;27696;42.704;23.304;2023-03-11T10:10:04;3.50;;;0.95;;
42006;SDS011;27696;42.704;23.304;2023-03-11T10:15:23;3.78;;;1.20;;
42006;SDS011;27696;42.704;23.304;2023-03-11T10:18:18;1.73;;;0.77;;
42006;SDS011;27696;42.704;23.304;2023-03-11T10:20:57;1.70;;;0.90;;
42006;SDS011;27696;42.704;23.304;2023-03-11T10:37:01;1.88;;;0.95;;
42006;SDS011;27696;42.704;23.304;2023-03-11T10:39:31;2.40;;;1.00;;
42006;SDS011;27696;42.704;23.304;2023-03-11T10:41:59;2.38;;;1.40;;
42006;SDS011;27696;42.704;23.304;2023-03-11T10:44:38;3.55;;;1.30;;
42006;SDS011;27696;42.704;23.304;2023-03-11T10:47:05;2.97;;;1.10;;
42006;SDS011;27696;42.704;23.304;2023-03-11T10:49:31;2.45;;;1.17;;
42006;SDS011;27696;42.704;23.304;2023-03-11T10:51:57;2.97;;;0.98;;
42006;SDS011;27696;42.704;23.304;2023-03-11T10:54:30;2.85;;;1.20;;
42006;SDS011;27696;42.704;23.304;2023-03-11T10:57:03;3.13;;;1.00;;
42006;SDS011;27696;42.704;23.304;2023-03-11T10:59:32;2.45;;;1.20;;
42006;SDS011;27696;42.704;23.304;2023-03-11T11:02:02;1.52;;;1.10;;
42006;SDS011;27696;42.704;23.304;2023-03-11T11:04:43;3.33;;;1.20;;
42006;SDS011;27696;42.704;23.304;2023-03-11T11:07:29;1.80;;;1.30;;
42006;SDS011;27696;42.704;23.304;2023-03-11T11:12:36;3.63;;;1.50;;
42006;SDS011;27696;42.704;23.304;2023-03-11T11:17:59;1.40;;;0.90;;
42006;SDS011;27696;42.704;23.304;2023-03-11T11:20:27;2.72;;;1.38;;
42006;SDS011;27696;42.704;23.304;2023-03-11T11:22:54;3.20;;;0.80;;
42006;SDS011;27696;42.704;23.304;2023-03-11T11:28:01;2.92;;;0.90;;
42006;SDS011;27696;42.704;23.304;2023-03-11T11:30:51;3.60;;;1.00;;
42006;SDS011;27696;42.704;23.304;2023-03-11T11:33:31;3.78;;;0.90;;
42006;SDS011;27696;42.704;23.304;2023-03-11T11:35:59;1.40;;;0.80;;
42006;SDS011;27696;42.704;23.304;2023-03-11T11:38:26;4.18;;;1.13;;
42006;SDS011;27696;42.704;23.304;2023-03-11T11:40:54;1.70;;;1.02;;
42006;SDS011;27696;42.704;23.304;2023-03-11T11:46:17;2.42;;;1.10;;
42006;SDS011;27696;42.704;23.304;2023-03-11T11:51:34;2.47;;;1.42;;
42006;SDS011;27696;42.704;23.304;2023-03-11T11:56:41;6.47;;;1.25;;
42006;SDS011;27696;42.704;23.304;2023-03-11T11:59:17;3.05;;;1.30;;
42006;SDS011;27696;42.704;23.304;2023-03-11T12:10:43;3.17;;;1.48;;
42006;SDS011;27696;42.704;23.304;2023-03-11T12:18:57;3.20;;;0.90;;
42006;SDS011;27696;42.704;23.304;2023-03-11T12:24:22;2.15;;;1.00;;
42006;SDS011;27696;42.704;23.304;2023-03-11T12:26:53;5.38;;;1.10;;
42006;SDS011;27696;42.704;23.304;2023-03-11T12:29:24;2.10;;;0.93;;
42006;SDS011;27696;42.704;23.304;2023-03-11T12:31:52;3.85;;;1.05;;
42006;SDS011;27696;42.704;23.304;2023-03-11T12:34:20;3.35;;;1.13;;
42006;SDS011;27696;42.704;23.304;2023-03-11T12:36:46;2.33;;;0.90;;
42006;SDS011;27696;42.704;23.304;2023-03-11T12:44:40;3.83;;;1.15;;
42006;SDS011;27696;42.704;23.304;2023-03-11T12:49:37;1.67;;;0.90;;
42006;SDS011;27696;42.704;23.304;2023-03-11T12:52:15;2.08;;;1.20;;
42006;SDS011;27696;42.704;23.304;2023-03-11T12:54:46;3.22;;;1.33;;
42006;SDS011;27696;42.704;23.304;2023-03-11T13:07:41;4.68;;;1.88;;
42006;SDS011;27696;42.704;23.304;2023-03-11T13:12:49;4.38;;;1.65;;
42006;SDS011;27696;42.704;23.304;2023-03-11T13:18:00;6.45;;;2.15;;
42006;SDS011;27696;42.704;23.304;2023-03-11T13:44:58;2.28;;;0.90;;
42006;SDS011;27696;42.704;23.304;2023-03-11T13:47:24;2.78;;;1.20;;
42006;SDS011;27696;42.704;23.304;2023-03-11T13:49:55;2.65;;;0.90;;
42006;SDS011;27696;42.704;23.304;2023-03-11T13:52:31;2.15;;;1.08;;
42006;SDS011;27696;42.704;23.304;2023-03-11T13:55:19;3.75;;;1.00;;
42006;SDS011;27696;42.704;23.304;2023-03-11T13:57:53;2.42;;;0.90;;
42006;SDS011;27696;42.704;23.304;2023-03-11T14:00:20;1.15;;;0.90;;
42006;SDS011;27696;42.704;23.304;2023-03-11T14:02:53;2.28;;;1.00;;
42006;SDS011;27696;42.704;23.304;2023-03-11T14:05:23;4.82;;;1.40;;
42006;SDS011;27696;42.704;23.304;2023-03-11T14:07:50;2.78;;;1.00;;
42006;SDS011;27696;42.704;23.304;2023-03-11T14:10:17;2.22;;;1.30;;
42006;SDS011;27696;42.704;23.304;2023-03-11T14:15:53;1.92;;;1.27;;
42006;SDS011;27696;42.704;23.304;2023-03-11T14:18:24;3.88;;;1.20;;
42006;SDS011;27696;42.704;23.304;2023-03-11T14:20:50;3.72;;;1.70;;
42006;SDS011;27696;42.704;23.304;2023-03-11T14:23:16;4.80;;;2.58;;
42006;SDS011;27696;42.704;23.304;2023-03-11T14:25:43;4.53;;;3.22;;
42006;SDS011;27696;42.704;23.304;2023-03-11T14:28:13;7.18;;;4.80;;
42006;SDS011;27696;42.704;23.304;2023-03-11T14:30:53;7.93;;;4.43;;
42006;SDS011;27696;42.704;23.304;2023-03-11T14:33:20;8.35;;;4.93;;
42006;SDS011;27696;42.704;23.304;2023-03-11T14:38:23;8.00;;;6.07;;
42006;SDS011;27696;42.704;23.304;2023-03-11T14:40:51;9.90;;;6.95;;
42006;SDS011;27696;42.704;23.304;2023-03-11T14:43:19;8.15;;;6.25;;
42006;SDS011;27696;42.704;23.304;2023-03-11T14:45:45;11.52;;;6.78;;
42006;SDS011;27696;42.704;23.304;2023-03-11T14:48:17;8.40;;;6.50;;
42006;SDS011;27696;42.704;23.304;2023-03-11T14:50:47;9.25;;;5.65;;
42006;SDS011;27696;42.704;23.304;2023-03-11T14:58:29;8.93;;;5.70;;
42006;SDS011;27696;42.704;23.304;2023-03-11T15:01:00;7.53;;;3.65;;
42006;SDS011;27696;42.704;23.304;2023-03-11T15:03:29;5.93;;;3.75;;
42006;SDS011;27696;42.704;23.304;2023-03-11T15:05:59;7.60;;;4.10;;
42006;SDS011;27696;42.704;23.304;2023-03-11T15:08:31;7.07;;;5.15;;
42006;SDS011;27696;42.704;23.304;2023-03-11T15:10:59;10.52;;;5.70;;
42006;SDS011;27696;42.704;23.304;2023-03-11T15:13:25;6.43;;;4.10;;
42006;SDS011;27696;42.704;23.304;2023-03-11T15:16:01;8.15;;;3.80;;
42006;SDS011;27696;42.704;23.304;2023-03-11T15:18:36;7.65;;;4.60;;
42006;SDS011;27696;42.704;23.304;2023-03-11T15:23:35;5.57;;;2.75;;
42006;SDS011;27696;42.704;23.304;2023-03-11T15:26:01;6.22;;;2.63;;
42006;SDS011;27696;42.704;23.304;2023-03-11T15:28:29;3.17;;;2.13;;
42006;SDS011;27696;42.704;23.304;2023-03-11T15:33:46;4.57;;;2.88;;
42006;SDS011;27696;42.704;23.304;2023-03-11T15:41:34;7.55;;;4.10;;
42006;SDS011;27696;42.704;23.304;2023-03-11T15:44:00;5.78;;;4.30;;
42006;SDS011;27696;42.704;23.304;2023-03-11T15:46:28;5.60;;;3.55;;
42006;SDS011;27696;42.704;23.304;2023-03-11T15:48:53;7.78;;;3.63;;
42006;SDS011;27696;42.704;23.304;2023-03-11T15:51:20;5.85;;;3.20;;
42006;SDS011;27696;42.704;23.304;2023-03-11T15:53:45;5.55;;;3.70;;
42006;SDS011;27696;42.704;23.304;2023-03-11T15:56:21;5.05;;;4.50;;
42006;SDS011;27696;42.704;23.304;2023-03-11T15:58:47;5.32;;;4.85;;
42006;SDS011;27696;42.704;23.304;2023-03-11T16:01:13;5.45;;;4.90;;
42006;SDS011;27696;42.704;23.304;2023-03-11T16:03:38;5.40;;;4.90;;
42006;SDS011;27696;42.704;23.304;2023-03-11T16:06:04;5.00;;;4.60;;
42006;SDS011;27696;42.704;23.304;2023-03-11T16:08:30;5.43;;;4.82;;
42006;SDS011;27696;42.704;23.304;2023-03-11T16:10:55;5.20;;;4.68;;
42006;SDS011;27696;42.704;23.304;2023-03-11T16:13:22;5.10;;;4.60;;
42006;SDS011;27696;42.704;23.304;2023-03-11T16:15:47;8.93;;;4.80;;
42006;SDS011;27696;42.704;23.304;2023-03-11T16:18:13;5.07;;;4.47;;
42006;SDS011;27696;42.704;23.304;2023-03-11T16:20:39;5.90;;;4.68;;
42006;SDS011;27696;42.704;23.304;2023-03-11T16:23:09;4.22;;;3.83;;
42006;SDS011;27696;42.704;23.304;2023-03-11T16:25:39;4.25;;;3.85;;
42006;SDS011;27696;42.704;23.304;2023-03-11T16:28:06;6.20;;;4.57;;
42006;SDS011;27696;42.704;23.304;2023-03-11T16:30:32;4.72;;;4.20;;
42006;SDS011;27696;42.704;23.304;2023-03-11T16:32:58;3.88;;;3.47;;
42006;SDS011;27696;42.704;23.304;2023-03-11T16:35:24;3.22;;;2.92;;
42006;SDS011;27696;42.704;23.304;2023-03-11T16:37:50;4.22;;;3.20;;
42006;SDS011;27696;42.704;23.304;2023-03-11T16:40:18;6.65;;;3.35;;
42006;SDS011;27696;42.704;23.304;2023-03-11T16:42:45;3.40;;;3.05;;
42006;SDS011;27696;42.704;23.304;2023-03-11T16:45:11;4.65;;;3.38;;
42006;SDS011;27696;42.704;23.304;2023-03-11T16:47:38;3.50;;;2.78;;
42006;SDS011;27696;42.704;23.304;2023-03-11T16:50:04;2.95;;;2.10;;
42006;SDS011;27696;42.704;23.304;2023-03-11T16:52:30;2.17;;;1.95;;
42006;SDS011;27696;42.704;23.304;2023-03-11T16:54:55;3.55;;;1.90;;
42006;SDS011;27696;42.704;23.304;2023-03-11T16:57:21;5.32;;;2.40;;
42006;SDS011;27696;42.704;23.304;2023-03-11T16:59:46;4.20;;;2.10;;